createdAt,value
2022-08-29T00:00:18.238Z,13.97
2022-08-29T00:02:50.644Z,13.81
2022-08-29T00:05:19.858Z,14.05
2022-08-29T00:07:51.371Z,14.03
2022-08-29T00:10:17.932Z,13.51
2022-08-29T00:12:44.657Z,13.79
2022-08-29T00:15:12.672Z,13.89
2022-08-29T00:17:39.356Z,13.57
2022-08-29T00:20:08.630Z,13.99
2022-08-29T00:22:35.154Z,13.99
2022-08-29T00:25:04.708Z,12.92
2022-08-29T00:27:32.380Z,13.71
2022-08-29T00:29:58.829Z,13.65
2022-08-29T00:32:25.265Z,13.22
2022-08-29T00:34:52.620Z,13.59
2022-08-29T00:37:19.234Z,13.57
2022-08-29T00:39:45.605Z,13.34
2022-08-29T00:42:11.984Z,13.50
2022-08-29T00:44:38.357Z,13.61
2022-08-29T00:47:10.150Z,13.39
2022-08-29T00:49:39.349Z,13.53
2022-08-29T00:52:18.226Z,13.43
2022-08-29T00:54:49.932Z,13.11
2022-08-29T00:57:19.666Z,13.31
2022-08-29T00:59:48.104Z,13.10
2022-08-29T01:02:14.966Z,13.18
2022-08-29T01:04:41.444Z,12.69
2022-08-29T01:07:09.937Z,12.98
2022-08-29T01:09:38.334Z,13.08
2022-08-29T01:12:18.304Z,12.65
2022-08-29T01:14:56.365Z,12.90
2022-08-29T01:17:34.864Z,12.70
2022-08-29T01:20:14.601Z,12.97
2022-08-29T01:23:00.832Z,12.91
2022-08-29T01:25:32.412Z,12.40
2022-08-29T01:28:23.700Z,12.59
2022-08-29T01:31:10.453Z,12.71
2022-08-29T01:33:53.301Z,12.66
2022-08-29T01:36:23.182Z,12.60
2022-08-29T01:38:49.994Z,12.42
2022-08-29T01:41:20.910Z,12.52
2022-08-29T01:43:51.871Z,12.48
2022-08-29T01:46:23.068Z,12.31
2022-08-29T01:48:49.696Z,11.67
2022-08-29T01:51:17.362Z,12.37
2022-08-29T01:53:45.036Z,12.36
2022-08-29T01:56:13.231Z,12.32
2022-08-29T01:58:39.709Z,11.82
2022-08-29T02:01:07.103Z,11.36
2022-08-29T02:03:33.564Z,12.08
2022-08-29T02:06:01.761Z,11.84
2022-08-29T02:08:28.940Z,11.42
2022-08-29T02:10:55.869Z,12.17
2022-08-29T02:13:24.463Z,11.88
2022-08-29T02:15:51.913Z,11.98
2022-08-29T02:18:18.279Z,11.92
2022-08-29T02:20:45.243Z,12.11
2022-08-29T02:23:29.769Z,12.09
2022-08-29T02:25:57.281Z,11.92
2022-08-29T02:28:23.692Z,11.91
2022-08-29T02:30:56.900Z,12.08
2022-08-29T02:33:24.798Z,12.05
2022-08-29T02:35:51.722Z,12.03
2022-08-29T02:38:18.191Z,11.94
2022-08-29T02:40:45.726Z,12.00
2022-08-29T02:43:12.733Z,11.69
2022-08-29T02:45:41.203Z,11.87
2022-08-29T02:48:08.187Z,11.95
2022-08-29T02:50:35.111Z,11.89
2022-08-29T02:53:01.832Z,11.82
2022-08-29T02:55:28.344Z,11.66
2022-08-29T02:57:54.849Z,11.24
2022-08-29T03:00:25.391Z,11.74
2022-08-29T03:02:53.074Z,11.71
2022-08-29T03:05:23.236Z,11.43
2022-08-29T03:07:51.058Z,10.89
2022-08-29T03:10:17.748Z,11.62
2022-08-29T03:12:44.724Z,11.06
2022-08-29T03:15:12.446Z,11.01
2022-08-29T03:17:39.318Z,11.54
2022-08-29T03:20:07.485Z,11.54
2022-08-29T03:22:34.673Z,11.56
2022-08-29T03:25:02.889Z,11.23
2022-08-29T03:27:32.966Z,11.02
2022-08-29T03:29:59.510Z,10.72
2022-08-29T03:32:26.521Z,11.20
2022-08-29T03:34:54.152Z,11.32
2022-08-29T03:37:21.057Z,10.82
2022-08-29T03:39:47.552Z,11.50
2022-08-29T03:42:13.983Z,11.51
2022-08-29T03:44:41.321Z,11.26
2022-08-29T03:47:08.285Z,11.05
2022-08-29T03:49:34.853Z,11.63
2022-08-29T03:52:01.738Z,11.58
2022-08-29T03:54:28.994Z,11.16
2022-08-29T03:56:56.484Z,11.46
2022-08-29T03:59:23.069Z,11.09
2022-08-29T04:01:50.625Z,11.39
2022-08-29T04:04:37.909Z,11.02
2022-08-29T04:07:06.313Z,11.47
2022-08-29T04:09:32.862Z,11.47
2022-08-29T04:11:59.355Z,11.12
2022-08-29T04:14:26.421Z,11.34
2022-08-29T04:16:52.791Z,11.47
2022-08-29T04:19:20.464Z,11.03
2022-08-29T04:21:48.696Z,11.30
2022-08-29T04:24:16.501Z,11.05
2022-08-29T04:26:42.912Z,10.93
2022-08-29T04:29:11.236Z,10.62
2022-08-29T04:31:38.743Z,11.40
2022-08-29T04:34:07.531Z,11.17
2022-08-29T04:36:35.810Z,11.38
2022-08-29T04:39:02.316Z,11.09
2022-08-29T04:41:28.740Z,11.32
2022-08-29T04:43:55.124Z,10.58
2022-08-29T04:46:23.879Z,11.05
2022-08-29T04:48:52.013Z,10.82
2022-08-29T04:51:18.416Z,11.01
2022-08-29T04:53:44.851Z,10.95
2022-08-29T04:56:12.424Z,10.93
2022-08-29T04:58:41.997Z,11.21
2022-08-29T05:01:15.742Z,11.50
2022-08-29T05:03:42.492Z,11.56
2022-08-29T05:06:12.269Z,11.27
2022-08-29T05:08:40.605Z,11.51
2022-08-29T05:11:11.641Z,11.68
2022-08-29T05:13:38.409Z,11.73
2022-08-29T05:16:09.680Z,11.69
2022-08-29T05:18:36.301Z,11.45
2022-08-29T05:21:03.276Z,11.55
2022-08-29T05:23:30.284Z,11.91
2022-08-29T05:26:03.717Z,11.50
2022-08-29T05:28:32.448Z,12.05
2022-08-29T05:31:00.020Z,11.90
2022-08-29T05:33:30.254Z,12.15
2022-08-29T05:35:58.124Z,12.42
2022-08-29T05:38:24.685Z,12.45
2022-08-29T05:40:51.082Z,12.14
2022-08-29T05:43:17.608Z,12.49
2022-08-29T05:45:44.406Z,12.35
2022-08-29T05:48:11.060Z,11.63
2022-08-29T05:50:42.364Z,12.62
2022-08-29T05:53:10.407Z,13.29
2022-08-29T05:55:44.069Z,13.50
2022-08-29T05:58:12.043Z,13.29
2022-08-29T06:00:44.239Z,13.84
2022-08-29T06:03:11.721Z,13.83
2022-08-29T06:05:39.421Z,13.74
2022-08-29T06:08:07.029Z,14.40
2022-08-29T06:10:34.446Z,14.41
2022-08-29T06:13:00.838Z,14.18
2022-08-29T06:15:29.657Z,13.89
2022-08-29T06:17:56.125Z,14.35
2022-08-29T06:20:22.621Z,14.89
2022-08-29T06:22:49.207Z,15.10
2022-08-29T06:25:38.526Z,15.20
2022-08-29T06:28:02.570Z,15.15
2022-08-29T06:30:32.451Z,15.18
2022-08-29T06:32:59.950Z,15.09
2022-08-29T06:35:26.533Z,14.88
2022-08-29T06:37:52.904Z,14.85
2022-08-29T06:40:20.738Z,14.85
2022-08-29T06:42:47.221Z,14.76
2022-08-29T06:45:13.674Z,14.90
2022-08-29T06:47:40.046Z,14.60
2022-08-29T06:50:07.065Z,14.38
2022-08-29T06:52:33.511Z,14.59
2022-08-29T06:55:02.310Z,14.28
2022-08-29T06:57:28.777Z,15.03
2022-08-29T06:59:55.190Z,14.85
2022-08-29T07:02:21.642Z,14.36
2022-08-29T07:04:48.153Z,15.00
2022-08-29T07:07:14.626Z,14.88
2022-08-29T07:09:41.125Z,15.85
2022-08-29T07:12:07.533Z,15.84
2022-08-29T07:14:34.015Z,15.83
2022-08-29T07:17:00.643Z,15.84
2022-08-29T07:19:27.430Z,15.95
2022-08-29T07:21:54.287Z,16.11
2022-08-29T07:24:25.064Z,16.38
2022-08-29T07:26:51.625Z,16.53
2022-08-29T07:29:20.929Z,16.59
2022-08-29T07:31:48.294Z,16.57
2022-08-29T07:34:15.858Z,16.90
2022-08-29T07:36:42.781Z,16.87
2022-08-29T07:39:13.333Z,16.81
2022-08-29T07:41:41.354Z,16.60
2022-08-29T07:44:09.351Z,16.71
2022-08-29T07:46:35.750Z,17.03
2022-08-29T07:49:02.141Z,17.21
2022-08-29T07:51:28.590Z,17.46
2022-08-29T07:53:56.284Z,16.90
2022-08-29T07:56:31.565Z,17.14
2022-08-29T07:59:01.151Z,17.40
2022-08-29T08:01:28.036Z,17.32
2022-08-29T08:03:55.331Z,18.05
2022-08-29T08:06:27.088Z,18.29
2022-08-29T08:08:54.454Z,18.13
2022-08-29T08:11:22.043Z,18.36
2022-08-29T08:13:49.143Z,19.04
2022-08-29T08:16:18.813Z,18.95
2022-08-29T08:18:45.244Z,19.11
2022-08-29T08:21:12.778Z,18.62
2022-08-29T08:23:40.365Z,19.26
2022-08-29T08:26:08.130Z,18.33
2022-08-29T08:28:34.774Z,19.13
2022-08-29T08:31:05.955Z,19.32
2022-08-29T08:33:35.510Z,19.39
2022-08-29T08:36:04.190Z,19.37
2022-08-29T08:38:31.361Z,19.07
2022-08-29T08:41:26.898Z,19.69
2022-08-29T08:43:56.630Z,19.35
2022-08-29T08:46:36.328Z,19.18
2022-08-29T08:49:07.933Z,19.09
2022-08-29T08:51:37.299Z,18.29
2022-08-29T08:54:08.477Z,19.47
2022-08-29T08:56:42.047Z,18.93
2022-08-29T08:59:16.241Z,19.45
2022-08-29T09:02:07.226Z,19.50
2022-08-29T09:05:02.075Z,19.71
2022-08-29T09:07:49.418Z,19.31
2022-08-29T09:10:45.805Z,19.23
2022-08-29T09:13:39.836Z,20.06
2022-08-29T09:16:16.162Z,20.11
2022-08-29T09:18:44.398Z,19.91
2022-08-29T09:21:40.128Z,20.12
2022-08-29T09:24:13.579Z,20.19
2022-08-29T09:26:40.722Z,20.40
2022-08-29T09:29:10.108Z,20.06
2022-08-29T09:31:37.513Z,20.05
2022-08-29T09:34:13.201Z,19.58
2022-08-29T09:36:48.715Z,20.74
2022-08-29T09:39:22.031Z,20.73
2022-08-29T09:41:53.093Z,20.50
2022-08-29T09:44:40.763Z,20.84
2022-08-29T09:47:14.488Z,21.00
2022-08-29T09:50:00.038Z,21.23
2022-08-29T09:52:26.472Z,20.82
2022-08-29T09:54:52.870Z,20.13
2022-08-29T09:57:19.166Z,20.85
2022-08-29T09:59:49.580Z,21.08
2022-08-29T10:02:38.052Z,20.95
2022-08-29T10:05:13.276Z,21.19
2022-08-29T10:07:48.900Z,21.75
2022-08-29T10:10:24.583Z,21.86
2022-08-29T10:12:55.924Z,21.61
2022-08-29T10:15:50.614Z,21.45
2022-08-29T10:18:27.267Z,21.42
2022-08-29T10:21:02.721Z,20.76
2022-08-29T10:23:34.830Z,21.02
2022-08-29T10:26:09.956Z,21.38
2022-08-29T10:28:48.901Z,21.35
2022-08-29T10:31:42.798Z,21.10
2022-08-29T10:34:26.832Z,20.98
2022-08-29T10:37:01.962Z,20.99
2022-08-29T10:39:45.809Z,21.55
2022-08-29T10:42:19.355Z,21.51
2022-08-29T10:45:02.500Z,21.88
2022-08-29T10:47:52.136Z,21.98
2022-08-29T10:50:45.875Z,21.48
2022-08-29T10:53:38.850Z,22.06
2022-08-29T10:56:24.801Z,21.75
2022-08-29T10:59:03.293Z,23.08
2022-08-29T11:01:42.087Z,22.66
2022-08-29T11:04:17.804Z,23.00
2022-08-29T11:06:51.437Z,22.32
2022-08-29T11:09:30.342Z,21.64
2022-08-29T11:12:07.884Z,22.29
2022-08-29T11:14:45.125Z,22.50
2022-08-29T11:17:14.709Z,22.43
2022-08-29T11:19:57.949Z,22.70
2022-08-29T11:22:35.953Z,22.37
2022-08-29T11:25:22.752Z,22.25
2022-08-29T11:28:03.494Z,22.57
2022-08-29T11:30:58.309Z,22.47
2022-08-29T11:33:38.223Z,22.27
2022-08-29T11:36:28.184Z,23.12
2022-08-29T11:39:11.434Z,23.61
2022-08-29T11:41:48.513Z,24.20
2022-08-29T11:44:27.011Z,24.10
2022-08-29T11:46:56.909Z,24.79
2022-08-29T11:49:38.189Z,24.57
2022-08-29T11:52:11.102Z,24.56
2022-08-29T11:54:38.965Z,23.20
2022-08-29T11:57:05.279Z,23.77
2022-08-29T11:59:44.261Z,23.10
2022-08-29T12:02:31.600Z,23.44
2022-08-29T12:05:16.383Z,24.00
2022-08-29T12:07:54.391Z,23.59
2022-08-29T12:10:23.725Z,23.22
2022-08-29T12:12:57.139Z,23.29
2022-08-29T12:15:32.489Z,23.18
2022-08-29T12:18:22.255Z,22.43
2022-08-29T12:20:50.886Z,21.95
2022-08-29T12:23:35.716Z,22.43
2022-08-29T12:26:22.869Z,22.34
2022-08-29T12:29:01.691Z,22.53
2022-08-29T12:32:02.111Z,22.79
2022-08-29T12:34:54.326Z,22.82
2022-08-29T12:37:39.869Z,23.14
2022-08-29T12:40:16.885Z,23.07
2022-08-29T12:42:58.916Z,22.58
2022-08-29T12:45:27.926Z,22.65
2022-08-29T12:47:58.657Z,22.76
2022-08-29T12:50:34.320Z,22.80
2022-08-29T12:53:05.229Z,22.19
2022-08-29T12:55:39.841Z,22.27
2022-08-29T12:58:08.291Z,22.59
2022-08-29T13:00:35.794Z,22.55
2022-08-29T13:03:16.364Z,22.59
2022-08-29T13:05:43.338Z,22.64
2022-08-29T13:08:36.941Z,24.11
2022-08-29T13:11:09.672Z,23.94
2022-08-29T13:13:36.879Z,23.88
2022-08-29T13:16:07.664Z,24.00
2022-08-29T13:18:44.694Z,24.16
2022-08-29T13:21:27.445Z,24.06
2022-08-29T13:24:03.033Z,23.78
2022-08-29T13:26:34.098Z,23.26
2022-08-29T13:29:03.668Z,23.64
2022-08-29T13:31:36.030Z,24.01
2022-08-29T13:34:11.001Z,23.36
2022-08-29T13:36:40.150Z,24.25
2022-08-29T13:39:25.246Z,23.95
2022-08-29T13:42:17.177Z,24.14
2022-08-29T13:44:46.590Z,24.68
2022-08-29T13:47:19.687Z,24.31
2022-08-29T13:49:46.627Z,24.36
2022-08-29T13:52:14.065Z,24.54
2022-08-29T13:54:42.468Z,25.07
2022-08-29T13:57:17.214Z,25.37
2022-08-29T13:59:44.634Z,24.56
2022-08-29T14:02:12.828Z,24.05
2022-08-29T14:04:41.120Z,23.54
2022-08-29T14:07:28.186Z,24.21
2022-08-29T14:09:55.136Z,24.11
2022-08-29T14:12:33.590Z,24.42
2022-08-29T14:15:09.370Z,24.40
2022-08-29T14:17:39.367Z,24.40
2022-08-29T14:20:09.342Z,25.07
2022-08-29T14:22:36.250Z,24.63
2022-08-29T14:25:03.015Z,24.95
2022-08-29T14:27:29.694Z,24.75
2022-08-29T14:29:56.139Z,23.85
2022-08-29T14:32:24.158Z,23.83
2022-08-29T14:34:53.509Z,24.09
2022-08-29T14:37:20.556Z,24.24
2022-08-29T14:39:48.520Z,24.32
2022-08-29T14:42:16.901Z,24.42
2022-08-29T14:44:43.507Z,24.30
2022-08-29T14:47:10.061Z,23.88
2022-08-29T14:49:36.494Z,23.16
2022-08-29T14:52:03.374Z,23.50
2022-08-29T14:54:29.837Z,23.26
2022-08-29T14:56:56.352Z,23.70
2022-08-29T14:59:25.412Z,23.86
2022-08-29T15:01:54.763Z,24.27
2022-08-29T15:04:35.692Z,24.52
2022-08-29T15:07:03.493Z,23.76
2022-08-29T15:09:29.876Z,23.94
2022-08-29T15:11:56.235Z,24.26
2022-08-29T15:14:22.621Z,24.06
2022-08-29T15:16:49.079Z,24.40
2022-08-29T15:19:53.365Z,24.31
2022-08-29T15:22:01.938Z,23.94
2022-08-29T15:24:28.439Z,24.12
2022-08-29T15:26:57.418Z,24.53
2022-08-29T15:29:24.442Z,24.43
2022-08-29T15:31:56.957Z,24.19
2022-08-29T15:34:27.101Z,24.63
2022-08-29T15:36:54.452Z,24.34
2022-08-29T15:39:21.249Z,24.45
2022-08-29T15:41:47.900Z,24.42
2022-08-29T15:44:14.967Z,24.44
2022-08-29T15:46:50.315Z,24.05
2022-08-29T15:49:20.012Z,23.83
2022-08-29T15:51:48.124Z,24.03
2022-08-29T15:54:15.018Z,23.91
2022-08-29T15:56:42.027Z,23.78
2022-08-29T15:59:10.429Z,23.09
2022-08-29T16:01:41.130Z,24.06
2022-08-29T16:04:10.046Z,23.50
2022-08-29T16:06:37.489Z,23.24
2022-08-29T16:09:15.143Z,23.70
2022-08-29T16:11:43.689Z,23.32
2022-08-29T16:14:46.603Z,23.87
2022-08-29T16:16:57.385Z,23.22
2022-08-29T16:19:23.795Z,23.81
2022-08-29T16:21:50.800Z,23.68
2022-08-29T16:24:17.596Z,23.58
2022-08-29T16:26:45.956Z,23.86
2022-08-29T16:29:12.958Z,23.85
2022-08-29T16:31:39.614Z,23.75
2022-08-29T16:34:05.984Z,24.18
2022-08-29T16:36:32.418Z,24.22
2022-08-29T16:38:58.805Z,24.20
2022-08-29T16:41:26.587Z,23.82
2022-08-29T16:43:53.812Z,23.69
2022-08-29T16:46:23.374Z,23.71
2022-08-29T16:48:52.737Z,23.64
2022-08-29T16:51:22.024Z,23.92
2022-08-29T16:53:48.834Z,23.78
2022-08-29T16:56:16.317Z,23.75
2022-08-29T16:59:00.134Z,23.43
2022-08-29T17:01:36.538Z,22.66
2022-08-29T17:04:06.077Z,23.57
2022-08-29T17:06:32.792Z,23.28
2022-08-29T17:08:59.845Z,23.40
2022-08-29T17:11:26.709Z,23.17
2022-08-29T17:13:53.487Z,23.03
2022-08-29T17:16:20.049Z,22.63
2022-08-29T17:18:46.764Z,22.31
2022-08-29T17:21:14.105Z,22.75
2022-08-29T17:23:40.715Z,23.04
2022-08-29T17:26:10.213Z,23.04
2022-08-29T17:28:38.252Z,22.88
2022-08-29T17:31:05.760Z,22.83
2022-08-29T17:33:32.915Z,22.75
2022-08-29T17:36:00.081Z,22.68
2022-08-29T17:38:27.013Z,22.38
2022-08-29T17:40:58.361Z,22.48
2022-08-29T17:43:25.887Z,22.49
2022-08-29T17:45:52.540Z,22.30
2022-08-29T17:48:20.166Z,21.72
2022-08-29T17:50:47.499Z,21.74
2022-08-29T17:53:14.548Z,22.20
2022-08-29T17:55:41.403Z,21.89
2022-08-29T17:58:08.418Z,22.10
2022-08-29T18:00:35.950Z,21.66
2022-08-29T18:03:02.416Z,21.97
2022-08-29T18:05:28.861Z,21.67
2022-08-29T18:07:56.815Z,21.49
2022-08-29T18:10:24.377Z,21.26
2022-08-29T18:12:50.845Z,20.66
2022-08-29T18:15:17.464Z,21.19
2022-08-29T18:17:45.415Z,21.52
2022-08-29T18:20:19.276Z,21.42
2022-08-29T18:22:47.385Z,20.15
2022-08-29T18:25:14.404Z,21.35
2022-08-29T18:27:43.614Z,21.31
2022-08-29T18:30:13.415Z,21.27
2022-08-29T18:32:41.098Z,20.48
2022-08-29T18:35:08.448Z,20.92
2022-08-29T18:37:34.863Z,20.83
2022-08-29T18:40:02.013Z,20.92
2022-08-29T18:42:40.019Z,20.64
2022-08-29T18:45:08.102Z,20.81
2022-08-29T18:47:34.498Z,20.53
2022-08-29T18:50:19.546Z,20.79
2022-08-29T18:52:51.546Z,20.59
2022-08-29T18:55:18.188Z,20.58
2022-08-29T18:57:46.294Z,20.75
2022-08-29T19:00:13.354Z,19.93
2022-08-29T19:02:39.987Z,20.79
2022-08-29T19:05:06.924Z,20.50
2022-08-29T19:07:33.570Z,20.81
2022-08-29T19:10:00.181Z,20.79
2022-08-29T19:12:26.637Z,20.30
2022-08-29T19:14:53.080Z,20.16
2022-08-29T19:17:19.592Z,20.58
2022-08-29T19:20:10.084Z,20.52
2022-08-29T19:22:38.049Z,20.43
2022-08-29T19:25:06.088Z,20.26
2022-08-29T19:27:43.274Z,19.91
2022-08-29T19:30:13.490Z,19.88
2022-08-29T19:32:40.308Z,20.11
2022-08-29T19:35:07.161Z,19.17
2022-08-29T19:37:33.645Z,19.89
2022-08-29T19:40:00.046Z,19.72
2022-08-29T19:42:27.926Z,19.82
2022-08-29T19:44:54.885Z,19.62
2022-08-29T19:47:22.893Z,19.95
2022-08-29T19:49:50.992Z,19.81
2022-08-29T19:52:17.902Z,19.86
2022-08-29T19:54:44.335Z,19.81
2022-08-29T19:57:13.315Z,19.33
2022-08-29T19:59:42.325Z,19.57
2022-08-29T20:02:10.576Z,19.70
2022-08-29T20:04:37.753Z,19.47
2022-08-29T20:07:05.387Z,19.49
2022-08-29T20:09:31.902Z,19.58
2022-08-29T20:11:59.267Z,19.51
2022-08-29T20:14:25.871Z,19.00
2022-08-29T20:16:52.274Z,19.25
2022-08-29T20:19:21.135Z,19.29
2022-08-29T20:21:49.843Z,18.83
2022-08-29T20:24:17.113Z,19.30
2022-08-29T20:26:46.640Z,18.70
2022-08-29T20:29:13.915Z,18.76
2022-08-29T20:31:40.402Z,19.18
2022-08-29T20:34:07.041Z,18.67
2022-08-29T20:36:52.228Z,18.83
2022-08-29T20:39:20.560Z,19.07
2022-08-29T20:41:52.029Z,18.30
2022-08-29T20:44:20.207Z,18.60
2022-08-29T20:46:47.152Z,19.05
2022-08-29T20:49:16.885Z,18.91
2022-08-29T20:51:44.361Z,18.51
2022-08-29T20:54:15.989Z,18.78
2022-08-29T20:56:42.663Z,19.10
2022-08-29T20:59:10.302Z,19.09
2022-08-29T21:01:38.027Z,18.57
2022-08-29T21:04:24.746Z,18.08
2022-08-29T21:06:55.829Z,19.12
2022-08-29T21:09:22.515Z,18.64
2022-08-29T21:11:49.701Z,18.90
2022-08-29T21:14:16.136Z,18.82
2022-08-29T21:16:42.533Z,19.11
2022-08-29T21:19:10.916Z,18.99
2022-08-29T21:21:39.173Z,18.95
2022-08-29T21:24:06.626Z,19.15
2022-08-29T21:26:33.975Z,18.65
2022-08-29T21:29:01.530Z,19.20
2022-08-29T21:31:28.082Z,18.54
2022-08-29T21:33:54.690Z,19.11
2022-08-29T21:36:25.653Z,19.22
2022-08-29T21:38:54.752Z,18.85
2022-08-29T21:41:22.283Z,18.77
2022-08-29T21:43:48.778Z,19.00
2022-08-29T21:46:21.890Z,18.99
2022-08-29T21:48:55.857Z,18.90
2022-08-29T21:51:23.434Z,18.45
2022-08-29T21:53:51.609Z,18.92
2022-08-29T21:56:18.121Z,18.22
2022-08-29T21:58:47.402Z,18.86
2022-08-29T22:01:14.202Z,18.31
2022-08-29T22:03:40.688Z,18.53
2022-08-29T22:06:09.277Z,18.55
2022-08-29T22:08:37.746Z,18.21
2022-08-29T22:11:18.213Z,18.84
2022-08-29T22:13:44.910Z,18.86
2022-08-29T22:16:30.153Z,18.60
2022-08-29T22:19:12.318Z,18.44
2022-08-29T22:21:44.400Z,18.74
2022-08-29T22:24:12.777Z,18.54
2022-08-29T22:26:40.936Z,18.64
2022-08-29T22:29:11.820Z,18.62
2022-08-29T22:31:38.937Z,18.58
2022-08-29T22:34:09.272Z,18.46
2022-08-29T22:36:35.731Z,18.23
2022-08-29T22:39:02.304Z,18.37
2022-08-29T22:41:28.775Z,17.89
2022-08-29T22:44:31.696Z,17.87
2022-08-29T22:46:43.812Z,18.09
2022-08-29T22:49:13.283Z,18.36
2022-08-29T22:51:40.171Z,18.39
2022-08-29T22:54:25.084Z,18.38
2022-08-29T22:56:54.384Z,17.94
2022-08-29T22:59:21.230Z,17.72
2022-08-29T23:01:47.709Z,18.10
2022-08-29T23:04:14.569Z,17.12
2022-08-29T23:06:40.952Z,18.22
2022-08-29T23:09:07.874Z,18.09
2022-08-29T23:11:34.509Z,18.22
2022-08-29T23:14:01.128Z,17.17
2022-08-29T23:16:29.116Z,17.60
2022-08-29T23:18:55.547Z,17.78
2022-08-29T23:21:22.877Z,18.06
2022-08-29T23:23:50.551Z,17.60
2022-08-29T23:26:18.232Z,17.60
2022-08-29T23:28:44.929Z,17.73
2022-08-29T23:31:11.516Z,17.82
2022-08-29T23:33:37.974Z,17.76
2022-08-29T23:36:04.645Z,17.27
2022-08-29T23:38:31.393Z,17.41
2022-08-29T23:40:58.361Z,17.35
2022-08-29T23:43:25.410Z,17.63
2022-08-29T23:45:51.996Z,17.28
2022-08-29T23:48:18.448Z,17.02
2022-08-29T23:50:53.247Z,17.70
2022-08-29T23:53:21.093Z,17.47
2022-08-29T23:55:48.029Z,17.50
2022-08-29T23:58:15.053Z,17.83
